createdAt,value
2017-09-22T00:00:23.280Z,99.90
2017-09-22T00:02:50.901Z,99.90
2017-09-22T00:05:18.393Z,99.90
2017-09-22T00:07:46.658Z,99.90
2017-09-22T00:10:14.353Z,99.90
2017-09-22T00:12:41.842Z,99.90
2017-09-22T00:15:09.333Z,99.90
2017-09-22T00:17:36.797Z,99.90
2017-09-22T00:20:05.077Z,99.90
2017-09-22T00:22:33.317Z,99.90
2017-09-22T00:25:00.800Z,99.90
2017-09-22T00:27:28.293Z,99.90
2017-09-22T00:29:55.767Z,99.90
2017-09-22T00:32:23.567Z,99.90
2017-09-22T00:34:51.069Z,99.90
2017-09-22T00:37:18.548Z,99.90
2017-09-22T00:39:46.025Z,99.90
2017-09-22T00:42:13.522Z,99.90
2017-09-22T00:44:41.762Z,99.90
2017-09-22T00:47:09.241Z,99.90
2017-09-22T00:49:38.241Z,99.90
2017-09-22T00:52:05.710Z,99.90
2017-09-22T00:54:33.954Z,99.90
2017-09-22T00:57:01.457Z,99.90
2017-09-22T00:59:28.932Z,99.90
2017-09-22T01:01:56.401Z,99.90
2017-09-22T01:04:23.893Z,99.90
2017-09-22T01:06:51.374Z,99.90
2017-09-22T01:09:19.637Z,99.90
2017-09-22T01:11:47.876Z,99.90
2017-09-22T01:14:15.365Z,99.90
2017-09-22T01:16:42.860Z,99.90
2017-09-22T01:19:10.333Z,99.90
2017-09-22T01:21:37.805Z,99.90
2017-09-22T01:24:05.293Z,99.90
2017-09-22T01:26:33.619Z,99.90
2017-09-22T01:29:01.137Z,99.90
2017-09-22T01:31:29.377Z,99.90
2017-09-22T01:33:56.851Z,99.90
2017-09-22T01:36:24.341Z,99.90
2017-09-22T01:38:51.809Z,99.90
2017-09-22T01:41:19.280Z,99.90
2017-09-22T01:43:46.773Z,99.90
2017-09-22T01:46:14.250Z,99.90
2017-09-22T01:48:41.745Z,99.90
2017-09-22T01:51:09.237Z,99.90
2017-09-22T01:53:36.705Z,99.90
2017-09-22T01:56:04.203Z,99.90
2017-09-22T01:58:31.673Z,99.90
2017-09-22T02:00:59.146Z,99.90
2017-09-22T02:03:26.638Z,99.90
2017-09-22T02:05:54.113Z,99.90
2017-09-22T02:08:22.373Z,99.90
2017-09-22T02:10:49.845Z,99.90
2017-09-22T02:13:18.372Z,99.90
2017-09-22T02:15:45.860Z,99.90
2017-09-22T02:18:13.343Z,99.90
2017-09-22T02:20:41.609Z,99.90
2017-09-22T02:23:09.076Z,99.90
2017-09-22T02:25:37.317Z,99.90
2017-09-22T02:28:04.824Z,99.90
2017-09-22T02:30:32.297Z,99.90
2017-09-22T02:33:00.073Z,99.90
2017-09-22T02:35:27.838Z,99.90
2017-09-22T02:37:55.309Z,99.90
2017-09-22T02:40:22.805Z,99.90
2017-09-22T02:42:51.041Z,99.90
2017-09-22T02:45:18.522Z,99.90
2017-09-22T02:47:46.016Z,99.90
2017-09-22T02:50:13.492Z,99.90
2017-09-22T02:52:40.992Z,99.90
2017-09-22T02:55:08.465Z,99.90
2017-09-22T02:57:36.701Z,99.90
2017-09-22T03:00:04.197Z,99.90
2017-09-22T03:02:32.441Z,99.90
2017-09-22T03:04:59.935Z,99.90
2017-09-22T03:07:28.177Z,99.90
2017-09-22T03:09:55.665Z,99.90
2017-09-22T03:12:23.912Z,99.90
2017-09-22T03:14:51.385Z,99.90
2017-09-22T03:17:18.878Z,99.90
2017-09-22T03:19:46.457Z,99.90
2017-09-22T03:22:14.181Z,99.90
2017-09-22T03:24:41.697Z,99.90
2017-09-22T03:27:09.185Z,99.90
2017-09-22T03:29:36.656Z,99.90
2017-09-22T03:32:04.910Z,99.90
2017-09-22T03:34:33.169Z,99.90
2017-09-22T03:37:00.644Z,99.90
2017-09-22T03:39:28.117Z,99.90
2017-09-22T03:41:56.373Z,99.90
2017-09-22T03:44:24.097Z,99.90
2017-09-22T03:46:51.569Z,99.90
2017-09-22T03:49:19.065Z,99.90
2017-09-22T03:51:47.304Z,99.90
2017-09-22T03:54:14.774Z,99.90
2017-09-22T03:56:42.269Z,99.90
2017-09-22T03:59:10.505Z,99.90
2017-09-22T04:01:37.982Z,99.90
2017-09-22T04:04:05.478Z,99.90
2017-09-22T04:06:32.957Z,99.90
2017-09-22T04:09:00.425Z,99.90
2017-09-22T04:11:27.965Z,99.90
2017-09-22T04:13:55.440Z,99.90
2017-09-22T04:16:23.184Z,99.90
2017-09-22T04:18:50.673Z,99.90
2017-09-22T04:21:18.149Z,99.90
2017-09-22T04:23:45.637Z,99.90
2017-09-22T04:26:13.121Z,99.90
2017-09-22T04:28:40.592Z,99.90
2017-09-22T04:31:08.078Z,99.90
2017-09-22T04:33:35.541Z,99.90
2017-09-22T04:36:03.801Z,99.90
2017-09-22T04:38:31.277Z,99.90
2017-09-22T04:40:59.512Z,99.90
2017-09-22T04:43:27.009Z,99.90
2017-09-22T04:45:55.254Z,99.90
2017-09-22T04:48:22.730Z,99.90
2017-09-22T04:50:50.229Z,99.90
2017-09-22T04:53:17.701Z,99.90
2017-09-22T04:55:45.176Z,99.90
2017-09-22T04:58:12.670Z,99.90
2017-09-22T05:00:40.914Z,99.90
2017-09-22T05:03:08.384Z,99.90
2017-09-22T05:05:35.864Z,99.90
2017-09-22T05:08:04.102Z,99.90
2017-09-22T05:10:31.593Z,99.90
2017-09-22T05:12:59.829Z,99.90
2017-09-22T05:15:27.301Z,99.90
2017-09-22T05:17:54.796Z,99.90
2017-09-22T05:20:23.033Z,99.90
2017-09-22T05:22:50.505Z,99.90
2017-09-22T05:25:18.325Z,99.90
2017-09-22T05:27:45.800Z,99.90
2017-09-22T05:30:13.273Z,99.90
2017-09-22T05:32:40.769Z,99.90
2017-09-22T05:35:08.249Z,99.90
2017-09-22T05:37:35.726Z,99.90
2017-09-22T05:40:03.219Z,99.90
2017-09-22T05:42:31.463Z,99.90
2017-09-22T05:44:58.941Z,99.90
2017-09-22T05:47:26.428Z,99.90
2017-09-22T05:49:53.901Z,99.90
2017-09-22T05:52:21.375Z,99.90
2017-09-22T05:54:48.873Z,99.90
2017-09-22T05:57:16.358Z,99.90
2017-09-22T05:59:43.834Z,99.90
2017-09-22T06:02:11.326Z,99.90
2017-09-22T06:04:38.801Z,99.90
2017-09-22T06:07:06.282Z,99.90
2017-09-22T06:09:34.537Z,99.90
2017-09-22T06:12:02.013Z,99.90
2017-09-22T06:14:30.254Z,99.90
2017-09-22T06:16:57.750Z,99.90
2017-09-22T06:19:25.225Z,99.90
2017-09-22T06:21:52.702Z,99.90
2017-09-22T06:24:20.189Z,99.90
2017-09-22T06:26:47.681Z,99.90
2017-09-22T06:29:15.153Z,99.90
2017-09-22T06:31:42.982Z,99.90
2017-09-22T06:34:10.484Z,99.90
2017-09-22T06:36:37.973Z,99.90
2017-09-22T06:39:05.473Z,99.90
2017-09-22T06:41:33.709Z,99.90
2017-09-22T06:44:01.550Z,99.90
2017-09-22T06:46:29.069Z,99.90
2017-09-22T06:48:57.305Z,99.90
2017-09-22T06:51:24.796Z,99.90
2017-09-22T06:53:53.051Z,99.90
2017-09-22T06:56:20.529Z,99.90
2017-09-22T06:58:48.798Z,99.90
2017-09-22T07:01:17.041Z,99.90
2017-09-22T07:03:45.924Z,99.90
2017-09-22T07:06:13.413Z,99.90
2017-09-22T07:08:40.885Z,99.90
2017-09-22T07:11:09.142Z,99.90
2017-09-22T07:13:36.613Z,99.90
2017-09-22T07:16:04.085Z,99.90
2017-09-22T07:18:32.346Z,99.90
2017-09-22T07:21:00.584Z,99.90
2017-09-22T07:23:28.058Z,99.90
2017-09-22T07:25:55.554Z,99.90
2017-09-22T07:28:23.030Z,99.90
2017-09-22T07:30:50.500Z,99.90
2017-09-22T07:33:17.989Z,99.90
2017-09-22T07:35:45.461Z,99.90
2017-09-22T07:38:12.954Z,99.90
2017-09-22T07:40:40.426Z,99.90
2017-09-22T07:43:08.017Z,99.90
2017-09-22T07:45:35.509Z,99.90
2017-09-22T07:48:03.849Z,99.90
2017-09-22T07:50:31.320Z,99.90
2017-09-22T07:52:58.809Z,99.90
2017-09-22T07:55:26.289Z,99.90
2017-09-22T07:57:53.790Z,99.90
2017-09-22T08:00:21.277Z,99.90
2017-09-22T08:02:48.762Z,99.90
2017-09-22T08:05:16.257Z,99.90
2017-09-22T08:07:43.734Z,99.90
2017-09-22T08:10:11.986Z,99.90
2017-09-22T08:12:39.528Z,99.90
2017-09-22T08:15:07.010Z,99.90
2017-09-22T08:17:34.482Z,99.90
2017-09-22T08:20:02.753Z,99.90
2017-09-22T08:22:30.240Z,99.90
2017-09-22T08:24:57.726Z,99.90
2017-09-22T08:27:25.231Z,99.90
2017-09-22T08:29:53.477Z,99.90
2017-09-22T08:32:20.969Z,99.90
2017-09-22T08:34:49.229Z,99.90
2017-09-22T08:37:16.705Z,99.90
2017-09-22T08:39:44.973Z,99.90
2017-09-22T08:42:13.590Z,99.90
2017-09-22T08:44:41.077Z,99.90
2017-09-22T08:47:08.578Z,99.90
2017-09-22T08:49:37.098Z,99.90
2017-09-22T08:52:04.577Z,99.90
2017-09-22T08:54:32.077Z,99.90
2017-09-22T08:57:00.325Z,99.90
2017-09-22T08:59:27.804Z,99.90
2017-09-22T09:01:56.070Z,99.90
2017-09-22T09:04:24.312Z,99.50
2017-09-22T09:06:51.804Z,99.30
2017-09-22T09:09:20.076Z,95.40
2017-09-22T09:11:47.553Z,95.50
2017-09-22T09:14:15.797Z,94.70
2017-09-22T09:16:43.298Z,94.80
2017-09-22T09:19:10.778Z,92.00
2017-09-22T09:21:38.258Z,92.20
2017-09-22T09:24:05.761Z,93.70
2017-09-22T09:26:33.233Z,93.20
2017-09-22T09:29:00.733Z,93.50
2017-09-22T09:31:28.233Z,91.00
2017-09-22T09:33:55.726Z,91.90
2017-09-22T09:36:23.205Z,90.70
2017-09-22T09:38:50.709Z,88.00
2017-09-22T09:41:18.193Z,85.50
2017-09-22T09:43:46.118Z,90.00
2017-09-22T09:46:14.380Z,85.10
2017-09-22T09:48:41.859Z,85.10
2017-09-22T09:51:09.350Z,88.50
2017-09-22T09:53:36.845Z,88.40
2017-09-22T09:56:04.317Z,90.40
2017-09-22T09:58:32.586Z,77.90
2017-09-22T10:01:00.062Z,77.90
2017-09-22T10:03:28.318Z,74.90
2017-09-22T10:05:55.856Z,75.00
2017-09-22T10:08:23.333Z,81.80
2017-09-22T10:10:50.817Z,79.80
2017-09-22T10:13:18.314Z,77.00
2017-09-22T10:15:45.790Z,77.20
2017-09-22T10:18:13.269Z,79.70
2017-09-22T10:20:41.534Z,75.20
2017-09-22T10:23:09.797Z,72.70
2017-09-22T10:25:37.539Z,72.70
2017-09-22T10:28:05.026Z,69.40
2017-09-22T10:30:32.501Z,66.80
2017-09-22T10:33:00.776Z,69.70
2017-09-22T10:35:29.025Z,65.80
2017-09-22T10:37:56.501Z,65.70
2017-09-22T10:40:24.105Z,67.00
2017-09-22T10:42:51.628Z,67.40
2017-09-22T10:45:19.873Z,69.30
2017-09-22T10:47:47.377Z,69.40
2017-09-22T10:50:14.861Z,66.50
2017-09-22T10:52:42.349Z,67.20
2017-09-22T10:55:09.876Z,60.60
2017-09-22T10:57:37.369Z,63.00
2017-09-22T11:00:04.849Z,64.20
2017-09-22T11:02:33.114Z,64.00
2017-09-22T11:05:00.592Z,64.30
2017-09-22T11:07:28.834Z,64.20
2017-09-22T11:09:56.326Z,64.10
2017-09-22T11:12:24.570Z,55.10
2017-09-22T11:14:52.078Z,55.10
2017-09-22T11:17:19.558Z,60.50
2017-09-22T11:19:47.200Z,55.80
2017-09-22T11:22:14.697Z,52.50
2017-09-22T11:24:42.170Z,51.80
2017-09-22T11:27:10.903Z,53.40
2017-09-22T11:29:39.917Z,51.70
2017-09-22T11:32:09.629Z,48.60
2017-09-22T11:34:38.292Z,49.80
2017-09-22T11:37:07.866Z,50.80
2017-09-22T11:39:36.666Z,50.10
2017-09-22T11:42:06.138Z,50.00
2017-09-22T11:44:35.592Z,52.20
2017-09-22T11:47:06.417Z,52.30
2017-09-22T11:49:35.525Z,48.30
2017-09-22T11:52:03.896Z,47.30
2017-09-22T11:54:34.451Z,48.30
2017-09-22T11:57:03.494Z,49.90
2017-09-22T11:59:32.387Z,47.90
2017-09-22T12:02:02.021Z,46.10
2017-09-22T12:04:32.230Z,46.00
2017-09-22T12:07:00.897Z,49.50
2017-09-22T12:09:29.439Z,48.40
2017-09-22T12:11:59.653Z,47.90
2017-09-22T12:14:29.038Z,47.90
2017-09-22T12:16:57.922Z,45.40
2017-09-22T12:19:26.710Z,46.70
2017-09-22T12:21:55.635Z,49.90
2017-09-22T12:24:25.882Z,48.80
2017-09-22T12:26:54.791Z,48.70
2017-09-22T12:29:23.194Z,49.50
2017-09-22T12:31:52.585Z,49.60
2017-09-22T12:34:22.077Z,48.40
2017-09-22T12:36:52.647Z,46.10
2017-09-22T12:39:23.031Z,46.20
2017-09-22T12:41:52.355Z,46.40
2017-09-22T12:44:23.284Z,46.00
2017-09-22T12:46:51.667Z,45.60
2017-09-22T12:49:21.145Z,45.40
2017-09-22T12:54:19.231Z,48.10
2017-09-22T12:56:48.286Z,50.60
2017-09-22T12:59:17.035Z,50.10
2017-09-22T13:01:47.194Z,48.60
2017-09-22T13:04:16.120Z,50.90
2017-09-22T13:06:45.740Z,50.10
2017-09-22T13:09:15.496Z,46.90
2017-09-22T13:11:45.079Z,47.00
2017-09-22T13:14:13.437Z,47.00
2017-09-22T13:16:42.591Z,43.80
2017-09-22T13:19:11.711Z,45.80
2017-09-22T13:21:42.188Z,45.20
2017-09-22T13:24:11.611Z,45.20
2017-09-22T13:26:40.522Z,45.00
2017-09-22T13:29:10.345Z,47.10
2017-09-22T13:31:38.836Z,47.60
2017-09-22T13:34:07.325Z,47.50
2017-09-22T13:36:36.224Z,45.00
2017-09-22T13:39:05.542Z,46.20
2017-09-22T13:41:35.468Z,52.00
2017-09-22T13:44:04.228Z,51.80
2017-09-22T13:46:33.131Z,53.20
2017-09-22T13:49:02.190Z,53.70
2017-09-22T13:51:31.789Z,53.90
2017-09-22T13:54:00.770Z,55.00
2017-09-22T13:56:32.208Z,55.20
2017-09-22T13:59:01.059Z,55.20
2017-09-22T14:01:30.572Z,55.90
2017-09-22T14:03:59.796Z,55.60
2017-09-22T14:06:29.830Z,58.20
2017-09-22T14:08:59.581Z,59.00
2017-09-22T14:11:28.457Z,59.00
2017-09-22T14:13:57.564Z,59.20
2017-09-22T14:16:27.250Z,59.20
2017-09-22T14:18:55.746Z,59.30
2017-09-22T14:21:24.563Z,59.40
2017-09-22T14:23:54.094Z,59.30
2017-09-22T14:26:22.031Z,60.80
2017-09-22T14:28:52.319Z,62.00
2017-09-22T14:31:20.727Z,62.00
2017-09-22T14:33:48.637Z,61.30
2017-09-22T14:36:17.912Z,62.30
2017-09-22T14:38:46.257Z,62.90
2017-09-22T14:41:14.573Z,63.30
2017-09-22T14:43:42.061Z,63.30
2017-09-22T14:46:10.313Z,62.60
2017-09-22T14:48:37.816Z,62.50
2017-09-22T14:51:06.054Z,64.40
2017-09-22T14:53:33.525Z,64.40
2017-09-22T14:56:01.021Z,64.20
2017-09-22T14:58:28.891Z,62.80
2017-09-22T15:00:56.385Z,64.70
2017-09-22T15:03:23.857Z,66.80
2017-09-22T15:05:52.112Z,67.60
2017-09-22T15:08:19.601Z,67.40
2017-09-22T15:10:47.856Z,68.20
2017-09-22T15:13:15.377Z,68.20
2017-09-22T15:15:42.861Z,69.40
2017-09-22T15:18:10.359Z,69.00
2017-09-22T15:20:38.613Z,70.00
2017-09-22T15:23:06.082Z,69.80
2017-09-22T15:25:34.322Z,72.00
2017-09-22T15:28:02.065Z,71.20
2017-09-22T15:30:29.550Z,72.70
2017-09-22T15:32:57.049Z,72.60
2017-09-22T15:35:25.296Z,76.90
2017-09-22T15:37:52.778Z,76.80
2017-09-22T15:40:20.281Z,76.80
2017-09-22T15:42:47.759Z,79.50
2017-09-22T15:45:15.234Z,79.30
2017-09-22T15:47:43.496Z,86.20
2017-09-22T15:50:10.981Z,85.60
2017-09-22T15:52:39.225Z,88.70
2017-09-22T15:55:06.717Z,88.70
2017-09-22T15:57:34.954Z,91.80
2017-09-22T16:00:02.458Z,91.80
2017-09-22T16:02:29.934Z,92.40
2017-09-22T16:04:57.405Z,94.00
2017-09-22T16:07:24.897Z,94.10
2017-09-22T16:09:52.373Z,94.40
2017-09-22T16:12:20.639Z,95.70
2017-09-22T16:14:48.118Z,95.60
2017-09-22T16:17:15.594Z,95.70
2017-09-22T16:19:43.105Z,96.30
2017-09-22T16:22:10.575Z,96.80
2017-09-22T16:24:38.826Z,97.10
2017-09-22T16:27:06.318Z,97.10
2017-09-22T16:29:34.602Z,95.70
2017-09-22T16:32:02.101Z,95.70
2017-09-22T16:34:29.573Z,97.90
2017-09-22T16:36:57.049Z,99.00
2017-09-22T16:39:25.423Z,98.10
2017-09-22T16:41:52.903Z,98.10
2017-09-22T16:44:21.137Z,98.90
2017-09-22T16:46:48.645Z,98.90
2017-09-22T16:49:16.117Z,99.90
2017-09-22T16:51:43.590Z,99.90
2017-09-22T16:54:11.094Z,99.90
2017-09-22T16:56:39.344Z,99.90
2017-09-22T16:59:06.820Z,99.90
2017-09-22T17:01:34.313Z,99.90
2017-09-22T17:04:01.786Z,99.90
2017-09-22T17:06:29.545Z,99.90
2017-09-22T17:08:57.046Z,99.90
2017-09-22T17:11:24.520Z,99.90
2017-09-22T17:13:52.766Z,99.90
2017-09-22T17:16:20.261Z,99.90
2017-09-22T17:18:48.501Z,99.90
2017-09-22T17:21:16.001Z,99.90
2017-09-22T17:23:43.486Z,99.90
2017-09-22T17:26:10.961Z,99.90
2017-09-22T17:28:38.461Z,99.90
2017-09-22T17:31:06.710Z,99.90
2017-09-22T17:33:34.186Z,99.90
2017-09-22T17:36:02.460Z,99.90
2017-09-22T17:38:30.709Z,99.90
2017-09-22T17:40:58.209Z,99.90
2017-09-22T17:43:35.967Z,99.90
2017-09-22T17:46:03.506Z,99.90
2017-09-22T17:48:30.985Z,99.90
2017-09-22T17:50:58.460Z,99.90
2017-09-22T17:53:25.950Z,99.90
2017-09-22T17:55:53.429Z,99.90
2017-09-22T17:58:20.921Z,99.90
2017-09-22T18:00:48.394Z,99.90
2017-09-22T18:03:15.866Z,99.90
2017-09-22T18:05:44.126Z,99.90
2017-09-22T18:08:11.623Z,99.90
2017-09-22T18:10:39.097Z,99.90
2017-09-22T18:13:06.593Z,99.90
2017-09-22T18:15:34.074Z,99.90
2017-09-22T18:18:02.330Z,99.90
2017-09-22T18:20:30.593Z,99.90
2017-09-22T18:22:58.065Z,99.90
2017-09-22T18:25:26.309Z,99.90
2017-09-22T18:27:53.805Z,99.90
2017-09-22T18:30:22.050Z,99.90
2017-09-22T18:32:49.570Z,99.90
2017-09-22T18:35:17.049Z,99.90
2017-09-22T18:37:44.529Z,99.90
2017-09-22T18:40:12.022Z,99.90
2017-09-22T18:42:39.508Z,99.90
2017-09-22T18:45:07.021Z,99.90
2017-09-22T18:47:35.266Z,99.90
2017-09-22T18:50:02.754Z,99.90
2017-09-22T18:52:31.017Z,99.90
2017-09-22T18:54:58.493Z,99.90
2017-09-22T18:57:26.742Z,99.90
2017-09-22T18:59:54.251Z,99.90
2017-09-22T19:02:21.729Z,99.90
2017-09-22T19:04:49.205Z,99.90
2017-09-22T19:07:16.709Z,99.90
2017-09-22T19:09:44.192Z,99.90
2017-09-22T19:12:11.666Z,99.90
2017-09-22T19:14:39.161Z,99.90
2017-09-22T19:17:07.410Z,99.90
2017-09-22T19:19:34.886Z,99.90
2017-09-22T19:22:02.373Z,99.90
2017-09-22T19:24:29.854Z,99.90
2017-09-22T19:26:57.358Z,99.90
2017-09-22T19:29:24.829Z,99.90
2017-09-22T19:31:53.077Z,99.90
2017-09-22T19:34:20.578Z,99.90
2017-09-22T19:36:48.048Z,99.90
2017-09-22T19:39:15.550Z,99.90
2017-09-22T19:41:43.033Z,99.90
2017-09-22T19:44:11.272Z,99.90
2017-09-22T19:46:38.772Z,99.90
2017-09-22T19:49:07.024Z,99.90
2017-09-22T19:51:34.526Z,99.90
2017-09-22T19:54:02.029Z,99.90
2017-09-22T19:56:29.509Z,99.90
2017-09-22T19:58:57.758Z,99.90
2017-09-22T20:01:25.305Z,99.90
2017-09-22T20:03:52.798Z,99.90
2017-09-22T20:06:21.069Z,99.90
2017-09-22T20:08:48.542Z,99.90
2017-09-22T20:11:16.785Z,99.90
2017-09-22T20:13:44.297Z,99.90
2017-09-22T20:16:11.779Z,99.90
2017-09-22T20:18:40.025Z,99.90
2017-09-22T20:21:07.805Z,99.90
2017-09-22T20:23:35.279Z,99.90
2017-09-22T20:26:03.104Z,99.90
2017-09-22T20:28:30.585Z,99.90
2017-09-22T20:30:58.077Z,99.90
2017-09-22T20:33:25.569Z,99.90
2017-09-22T20:35:53.815Z,99.90
2017-09-22T20:38:21.313Z,99.90
2017-09-22T20:40:48.789Z,99.90
2017-09-22T20:43:16.262Z,99.90
2017-09-22T20:45:43.758Z,99.90
2017-09-22T20:48:12.008Z,99.90
2017-09-22T20:50:39.521Z,99.90
2017-09-22T20:53:07.001Z,99.90
2017-09-22T20:55:34.501Z,99.90
2017-09-22T20:58:02.162Z,99.90
2017-09-22T21:00:30.422Z,99.90
2017-09-22T21:02:57.922Z,99.90
2017-09-22T21:05:25.401Z,99.90
2017-09-22T21:07:52.889Z,99.90
2017-09-22T21:10:20.403Z,99.90
2017-09-22T21:12:47.883Z,99.90
2017-09-22T21:15:15.389Z,99.90
2017-09-22T21:17:43.633Z,99.90
2017-09-22T21:20:11.130Z,99.90
2017-09-22T21:22:39.373Z,99.90
2017-09-22T21:25:06.858Z,99.90
2017-09-22T21:27:35.118Z,99.90
2017-09-22T21:30:02.597Z,99.90
2017-09-22T21:32:30.861Z,99.90
2017-09-22T21:34:59.109Z,99.90
2017-09-22T21:37:26.588Z,99.90
2017-09-22T21:39:54.090Z,99.90
2017-09-22T21:42:21.569Z,99.90
2017-09-22T21:44:49.049Z,99.90
2017-09-22T21:47:16.545Z,99.90
2017-09-22T21:49:44.028Z,99.90
2017-09-22T21:52:11.521Z,99.90
2017-09-22T21:54:39.002Z,99.90
2017-09-22T21:57:07.266Z,99.90
2017-09-22T21:59:34.749Z,99.90
2017-09-22T22:02:02.246Z,99.90
2017-09-22T22:04:35.367Z,99.90
2017-09-22T22:07:08.569Z,99.90
2017-09-22T22:09:36.814Z,99.90
2017-09-22T22:12:04.293Z,99.90
2017-09-22T22:14:31.798Z,99.90
2017-09-22T22:16:59.277Z,99.90
2017-09-22T22:19:26.761Z,99.90
2017-09-22T22:21:54.267Z,99.90
2017-09-22T22:24:21.750Z,99.90
2017-09-22T22:26:49.229Z,99.90
2017-09-22T22:29:16.721Z,99.90
2017-09-22T22:31:44.201Z,99.90
2017-09-22T22:34:11.702Z,99.90
2017-09-22T22:36:39.182Z,99.90
2017-09-22T22:39:07.431Z,99.90
2017-09-22T22:41:34.932Z,99.90
2017-09-22T22:44:02.417Z,99.90
2017-09-22T22:46:29.893Z,99.90
2017-09-22T22:48:57.390Z,99.90
2017-09-22T22:51:25.641Z,99.90
2017-09-22T22:53:53.117Z,99.90
2017-09-22T22:56:21.637Z,99.90
2017-09-22T22:58:49.118Z,99.90
2017-09-22T23:01:16.596Z,99.90
2017-09-22T23:03:44.150Z,99.90
2017-09-22T23:06:11.625Z,99.90
2017-09-22T23:08:39.897Z,99.90
2017-09-22T23:11:08.157Z,99.90
2017-09-22T23:13:35.646Z,99.90
2017-09-22T23:18:37.789Z,99.90
2017-09-22T23:21:05.285Z,99.90
2017-09-22T23:23:33.549Z,99.90
2017-09-22T23:26:01.801Z,99.90
2017-09-22T23:28:29.738Z,99.90
2017-09-22T23:30:57.238Z,99.90
2017-09-22T23:33:24.717Z,99.90
2017-09-22T23:35:52.966Z,99.90
2017-09-22T23:38:20.465Z,99.90
2017-09-22T23:40:47.993Z,99.90
2017-09-22T23:43:15.708Z,99.90
2017-09-22T23:45:43.206Z,99.90
2017-09-22T23:48:10.681Z,99.90
2017-09-22T23:50:38.924Z,99.90
2017-09-22T23:53:06.420Z,99.90
2017-09-22T23:55:34.666Z,99.90
2017-09-22T23:58:02.145Z,99.90
